SHGN15 YWLM-YWLM
Flight info
| Callsign | SHGN15 |
|---|---|
| Flight time | 0h 16m |
| Altitude | 10000 |
| Route | YWLM YWLM |
| Aircraft | F35/M-SDE2E3FGHIJ1RWXY/LB1 |
Departure
| Time | 2026-05-01 07:23 |
|---|---|
| Airport | Newcastle Airport (YWLM) |
Arrival
| Time | 2026-05-01 07:40 |
|---|---|
| Airport | Newcastle Airport (YWLM) |
| Time | Latitude | Longitude | Altitude | Speed | Heading |
|---|---|---|---|---|---|
| 2026-05-01 07:23 | -32.81977 | 151.84258 | 1216 ft | 373 kts | 207° |
| 2026-05-01 07:23 | -32.86689 | 151.84368 | 1954 ft | 455 kts | 132° |
| 2026-05-01 07:24 | -32.89174 | 151.87381 | 2572 ft | 524 kts | 133° |
| 2026-05-01 07:24 | -32.91330 | 151.89926 | 6017 ft | 385 kts | 133° |
| 2026-05-01 07:24 | -32.93252 | 151.92177 | 6225 ft | 421 kts | 134° |
| 2026-05-01 07:24 | -32.95689 | 151.95127 | 6823 ft | 562 kts | 133° |
| 2026-05-01 07:25 | -32.98600 | 151.98748 | 6859 ft | 642 kts | 132° |
| 2026-05-01 07:25 | -33.00553 | 152.02814 | 7047 ft | 555 kts | 41° |
| 2026-05-01 07:25 | -32.99553 | 152.01336 | 7158 ft | 280 kts | 151° |
| 2026-05-01 07:25 | -33.01618 | 152.01806 | 7371 ft | 350 kts | 205° |
| 2026-05-01 07:26 | -33.01315 | 151.99561 | 7308 ft | 387 kts | 315° |
| 2026-05-01 07:26 | -33.00211 | 152.00514 | 7423 ft | 334 kts | 130° |
| 2026-05-01 07:26 | -33.01409 | 152.02214 | 10454 ft | 85 kts | 323° |
| 2026-05-01 07:26 | -33.00795 | 152.01599 | 9322 ft | 47 kts | 190° |
| 2026-05-01 07:27 | -33.02569 | 152.01591 | 7092 ft | 396 kts | 179° |
| 2026-05-01 07:27 | -33.04674 | 152.03537 | 7377 ft | 480 kts | 71° |
| 2026-05-01 07:27 | -33.01744 | 152.04162 | 7803 ft | 549 kts | 295° |
| 2026-05-01 07:27 | -33.03026 | 152.00099 | 7979 ft | 575 kts | 243° |
| 2026-05-01 07:28 | -33.06185 | 151.97251 | 7846 ft | 619 kts | 169° |
| 2026-05-01 07:28 | -33.10186 | 151.99421 | 8004 ft | 665 kts | 151° |
| 2026-05-01 07:28 | -33.13710 | 152.02713 | 8339 ft | 652 kts | 83° |
| 2026-05-01 07:28 | -33.12070 | 152.04646 | 7562 ft | 635 kts | 19° |
| 2026-05-01 07:29 | -33.09550 | 152.02894 | 6322 ft | 563 kts | 247° |
| 2026-05-01 07:29 | -33.10440 | 152.01157 | 6417 ft | 608 kts | 214° |
| 2026-05-01 07:29 | -33.11597 | 152.03172 | 6929 ft | 498 kts | 18° |
| 2026-05-01 07:29 | -33.07967 | 152.04568 | 6999 ft | 580 kts | 18° |
| 2026-05-01 07:30 | -33.04665 | 152.06993 | 6966 ft | 619 kts | 66° |
| 2026-05-01 07:30 | -33.06118 | 152.11321 | 6970 ft | 646 kts | 133° |
| 2026-05-01 07:30 | -33.09151 | 152.14983 | 6841 ft | 605 kts | 133° |
| 2026-05-01 07:30 | -33.08275 | 152.16943 | 6856 ft | 464 kts | 276° |
| 2026-05-01 07:31 | -33.09364 | 152.17328 | 7091 ft | 320 kts | 98° |
| 2026-05-01 07:31 | -33.07494 | 152.13746 | 5482 ft | 451 kts | 267° |
| 2026-05-01 07:32 | -33.04640 | 152.08511 | 6811 ft | 435 kts | 259° |
| 2026-05-01 07:32 | -33.02705 | 152.06617 | 7239 ft | 490 kts | 343° |
| 2026-05-01 07:33 | -33.01556 | 152.05901 | 14840 ft | 339 kts | 166° |
| 2026-05-01 07:33 | -33.01269 | 152.06160 | 3309 ft | 338 kts | 7° |
| 2026-05-01 07:33 | -32.97638 | 152.06264 | 10255 ft | 238 kts | 219° |
| 2026-05-01 07:34 | -32.97532 | 152.06504 | 5649 ft | 380 kts | 31° |
| 2026-05-01 07:34 | -32.92339 | 152.09359 | 6111 ft | 390 kts | 328° |
| 2026-05-01 07:34 | -32.90109 | 152.06511 | 7057 ft | 513 kts | 314° |
| 2026-05-01 07:35 | -32.87665 | 152.03304 | 7181 ft | 524 kts | 313° |
| 2026-05-01 07:35 | -32.85224 | 152.00093 | 7106 ft | 526 kts | 313° |
| 2026-05-01 07:35 | -32.82936 | 151.97084 | 6457 ft | 455 kts | 313° |
| 2026-05-01 07:35 | -32.80918 | 151.94423 | 5453 ft | 418 kts | 313° |
| 2026-05-01 07:36 | -32.79023 | 151.91895 | 3979 ft | 403 kts | 313° |
| 2026-05-01 07:36 | -32.77228 | 151.89457 | 3156 ft | 375 kts | 312° |
| 2026-05-01 07:36 | -32.75657 | 151.87261 | 2918 ft | 324 kts | 312° |
| 2026-05-01 07:36 | -32.74287 | 151.85311 | 2773 ft | 291 kts | 312° |
| 2026-05-01 07:37 | -32.75306 | 151.82086 | 2670 ft | 278 kts | 226° |
| 2026-05-01 07:37 | -32.77110 | 151.80764 | 2114 ft | 326 kts | 159° |
| 2026-05-01 07:37 | -32.78764 | 151.82610 | 394 ft | 333 kts | 129° |
| 2026-05-01 07:38 | -32.79806 | 151.84076 | 365 ft | 372 kts | 130° |
| 2026-05-01 07:38 | -32.81340 | 151.84008 | 802 ft | 183 kts | 307° |
| 2026-05-01 07:38 | -32.79724 | 151.81304 | 1029 ft | 233 kts | 309° |
| 2026-05-01 07:39 | -32.79058 | 151.80274 | 1222 ft | 237 kts | 310° |
| 2026-05-01 07:39 | -32.77837 | 151.79519 | 1317 ft | 193 kts | 32° |
| 2026-05-01 07:39 | -32.78456 | 151.81899 | 201 ft | 177 kts | 130° |
| 2026-05-01 07:40 | -32.79200 | 151.82938 | 28 ft | 136 kts | 130° |
| 2026-05-01 07:40 | -32.79667 | 151.83590 | 25 ft | 83 kts | 130° |
| 2026-05-01 07:40 | -32.79815 | 151.83930 | 25 ft | 28 kts | 54° |
| 2026-05-01 07:40 | -32.79736 | 151.83977 | 26 ft | 18 kts | 310° |
| 2026-05-01 07:41 | -32.79536 | 151.83697 | 25 ft | 51 kts | 310° |
| 2026-05-01 07:41 | -32.79367 | 151.83468 | 26 ft | 15 kts | 341° |
| 2026-05-01 07:41 | -32.79161 | 151.83660 | 28 ft | 23 kts | 40° |
| 2026-05-01 07:42 | -32.79067 | 151.83725 | 25 ft | 9 kts | 327° |
| 2026-05-01 07:42 | -32.79011 | 151.83711 | 25 ft | 9 kts | 36° |
| 2026-05-01 07:42 | -32.79007 | 151.83758 | 26 ft | 7 kts | 148° |
| 2026-05-01 07:42 | -32.79031 | 151.83740 | 26 ft | 2 kts | 234° |
| 2026-05-01 07:43 | -32.79033 | 151.83737 | 26 ft | 1 kts | 234° |
| 2026-05-01 07:43 | -32.79036 | 151.83732 | 27 ft | 0 kts | 234° |